sensor_id;sensor_type;location;lat;lon;timestamp;temperature;humidity
71672;DHT22;62112;45.638;11.714;2022-11-18T00:02:08;20.60;91.40
71672;DHT22;62112;45.638;11.714;2022-11-18T00:04:34;20.60;91.60
71672;DHT22;62112;45.638;11.714;2022-11-18T00:07:00;20.50;91.60
71672;DHT22;62112;45.638;11.714;2022-11-18T00:09:26;20.50;91.40
71672;DHT22;62112;45.638;11.714;2022-11-18T00:11:52;20.50;91.60
71672;DHT22;62112;45.638;11.714;2022-11-18T00:14:36;20.50;91.70
71672;DHT22;62112;45.638;11.714;2022-11-18T00:17:04;20.60;91.50
71672;DHT22;62112;45.638;11.714;2022-11-18T00:19:38;20.60;91.70
71672;DHT22;62112;45.638;11.714;2022-11-18T00:22:06;20.50;91.50
71672;DHT22;62112;45.638;11.714;2022-11-18T00:24:32;20.50;91.50
71672;DHT22;62112;45.638;11.714;2022-11-18T00:26:58;20.40;91.40
71672;DHT22;62112;45.638;11.714;2022-11-18T00:29:25;20.50;91.50
71672;DHT22;62112;45.638;11.714;2022-11-18T00:31:55;20.40;91.50
71672;DHT22;62112;45.638;11.714;2022-11-18T00:34:21;20.50;91.50
71672;DHT22;62112;45.638;11.714;2022-11-18T00:36:47;20.50;91.60
71672;DHT22;62112;45.638;11.714;2022-11-18T00:39:16;20.50;91.40
71672;DHT22;62112;45.638;11.714;2022-11-18T00:41:42;20.50;91.40
71672;DHT22;62112;45.638;11.714;2022-11-18T00:44:27;20.50;91.60
71672;DHT22;62112;45.638;11.714;2022-11-18T00:46:53;20.50;91.60
71672;DHT22;62112;45.638;11.714;2022-11-18T00:49:19;20.50;91.50
71672;DHT22;62112;45.638;11.714;2022-11-18T00:51:45;20.50;91.40
71672;DHT22;62112;45.638;11.714;2022-11-18T00:54:10;20.50;91.60
71672;DHT22;62112;45.638;11.714;2022-11-18T00:56:37;20.50;91.30
71672;DHT22;62112;45.638;11.714;2022-11-18T00:59:03;20.50;91.50
71672;DHT22;62112;45.638;11.714;2022-11-18T01:01:29;20.40;91.40
71672;DHT22;62112;45.638;11.714;2022-11-18T01:03:54;20.50;91.50
71672;DHT22;62112;45.638;11.714;2022-11-18T01:06:20;20.50;91.40
71672;DHT22;62112;45.638;11.714;2022-11-18T01:08:46;20.50;91.50
71672;DHT22;62112;45.638;11.714;2022-11-18T01:11:12;20.50;91.50
71672;DHT22;62112;45.638;11.714;2022-11-18T01:13:56;20.50;91.40
71672;DHT22;62112;45.638;11.714;2022-11-18T01:16:25;20.50;91.50
71672;DHT22;62112;45.638;11.714;2022-11-18T01:18:51;20.50;91.30
71672;DHT22;62112;45.638;11.714;2022-11-18T01:21:17;20.50;91.50
71672;DHT22;62112;45.638;11.714;2022-11-18T01:23:43;20.50;91.30
71672;DHT22;62112;45.638;11.714;2022-11-18T01:26:11;20.50;91.20
71672;DHT22;62112;45.638;11.714;2022-11-18T01:28:38;20.50;91.50
71672;DHT22;62112;45.638;11.714;2022-11-18T01:31:12;20.50;91.50
71672;DHT22;62112;45.638;11.714;2022-11-18T01:33:39;20.40;91.30
71672;DHT22;62112;45.638;11.714;2022-11-18T01:36:23;20.40;91.40
71672;DHT22;62112;45.638;11.714;2022-11-18T01:38:50;20.50;91.30
71672;DHT22;62112;45.638;11.714;2022-11-18T01:41:18;20.50;91.50
71672;DHT22;62112;45.638;11.714;2022-11-18T01:43:59;20.50;91.40
71672;DHT22;62112;45.638;11.714;2022-11-18T01:46:28;20.40;91.60
71672;DHT22;62112;45.638;11.714;2022-11-18T01:49:06;20.40;91.40
71672;DHT22;62112;45.638;11.714;2022-11-18T01:51:42;20.50;91.40
71672;DHT22;62112;45.638;11.714;2022-11-18T01:54:16;20.40;91.30
71672;DHT22;62112;45.638;11.714;2022-11-18T01:56:45;20.40;91.40
71672;DHT22;62112;45.638;11.714;2022-11-18T01:59:17;20.50;91.30
71672;DHT22;62112;45.638;11.714;2022-11-18T02:01:43;20.40;91.40
71672;DHT22;62112;45.638;11.714;2022-11-18T02:04:10;20.40;91.50
71672;DHT22;62112;45.638;11.714;2022-11-18T02:06:37;20.40;91.40
71672;DHT22;62112;45.638;11.714;2022-11-18T02:09:03;20.40;91.40
71672;DHT22;62112;45.638;11.714;2022-11-18T02:11:29;20.40;91.20
71672;DHT22;62112;45.638;11.714;2022-11-18T02:14:14;20.40;91.40
71672;DHT22;62112;45.638;11.714;2022-11-18T02:25:13;20.40;91.40
71672;DHT22;62112;45.638;11.714;2022-11-18T02:30:43;20.40;91.30
71672;DHT22;62112;45.638;11.714;2022-11-18T02:33:21;20.40;91.50
71672;DHT22;62112;45.638;11.714;2022-11-18T02:36:08;20.40;91.50
71672;DHT22;62112;45.638;11.714;2022-11-18T02:38:45;20.50;91.30
71672;DHT22;62112;45.638;11.714;2022-11-18T02:41:17;20.30;91.20
71672;DHT22;62112;45.638;11.714;2022-11-18T02:43:53;20.30;91.50
71672;DHT22;62112;45.638;11.714;2022-11-18T02:46:33;20.40;91.40
71672;DHT22;62112;45.638;11.714;2022-11-18T02:49:05;20.40;91.30
71672;DHT22;62112;45.638;11.714;2022-11-18T02:51:32;20.30;91.30
71672;DHT22;62112;45.638;11.714;2022-11-18T02:54:03;20.40;91.20
71672;DHT22;62112;45.638;11.714;2022-11-18T02:56:32;20.40;91.30
71672;DHT22;62112;45.638;11.714;2022-11-18T02:58:59;20.30;91.30
71672;DHT22;62112;45.638;11.714;2022-11-18T03:01:30;20.30;91.20
71672;DHT22;62112;45.638;11.714;2022-11-18T03:03:56;20.40;91.30
71672;DHT22;62112;45.638;11.714;2022-11-18T03:12:33;20.40;91.20
71672;DHT22;62112;45.638;11.714;2022-11-18T03:20:44;20.30;91.40
71672;DHT22;62112;45.638;11.714;2022-11-18T03:25:54;20.40;91.40
71672;DHT22;62112;45.638;11.714;2022-11-18T03:31:05;20.30;91.10
71672;DHT22;62112;45.638;11.714;2022-11-18T03:33:36;20.30;91.30
71672;DHT22;62112;45.638;11.714;2022-11-18T03:36:07;20.30;91.40
71672;DHT22;62112;45.638;11.714;2022-11-18T03:38:37;20.30;91.30
71672;DHT22;62112;45.638;11.714;2022-11-18T03:41:07;20.30;91.20
71672;DHT22;62112;45.638;11.714;2022-11-18T03:43:38;20.30;91.40
71672;DHT22;62112;45.638;11.714;2022-11-18T03:46:13;20.30;91.30
71672;DHT22;62112;45.638;11.714;2022-11-18T03:49:00;20.40;91.30
71672;DHT22;62112;45.638;11.714;2022-11-18T03:51:32;20.30;91.40
71672;DHT22;62112;45.638;11.714;2022-11-18T03:54:07;20.30;91.20
71672;DHT22;62112;45.638;11.714;2022-11-18T03:56:38;20.30;91.20
71672;DHT22;62112;45.638;11.714;2022-11-18T03:59:08;20.30;91.30
71672;DHT22;62112;45.638;11.714;2022-11-18T04:04:20;20.30;91.40
71672;DHT22;62112;45.638;11.714;2022-11-18T04:06:57;20.20;91.40
71672;DHT22;62112;45.638;11.714;2022-11-18T04:09:29;20.30;91.30
71672;DHT22;62112;45.638;11.714;2022-11-18T04:12:09;20.30;91.30
71672;DHT22;62112;45.638;11.714;2022-11-18T04:14:38;20.20;91.30
71672;DHT22;62112;45.638;11.714;2022-11-18T04:17:11;20.20;91.10
71672;DHT22;62112;45.638;11.714;2022-11-18T04:19:38;20.30;91.20
71672;DHT22;62112;45.638;11.714;2022-11-18T04:22:04;20.20;91.30
71672;DHT22;62112;45.638;11.714;2022-11-18T04:24:30;20.30;91.30
71672;DHT22;62112;45.638;11.714;2022-11-18T04:26:56;20.20;91.30
71672;DHT22;62112;45.638;11.714;2022-11-18T04:29:22;20.30;91.60
71672;DHT22;62112;45.638;11.714;2022-11-18T04:31:48;20.20;91.10
71672;DHT22;62112;45.638;11.714;2022-11-18T04:34:14;20.30;91.20
71672;DHT22;62112;45.638;11.714;2022-11-18T04:36:40;20.20;91.20
71672;DHT22;62112;45.638;11.714;2022-11-18T04:39:05;20.20;91.30
71672;DHT22;62112;45.638;11.714;2022-11-18T04:41:31;20.20;91.20
71672;DHT22;62112;45.638;11.714;2022-11-18T04:44:16;20.30;91.20
71672;DHT22;62112;45.638;11.714;2022-11-18T04:46:42;20.20;91.30
71672;DHT22;62112;45.638;11.714;2022-11-18T04:49:11;20.20;91.30
71672;DHT22;62112;45.638;11.714;2022-11-18T04:51:37;20.30;91.40
71672;DHT22;62112;45.638;11.714;2022-11-18T04:54:04;20.30;91.30
71672;DHT22;62112;45.638;11.714;2022-11-18T04:56:30;20.20;91.40
71672;DHT22;62112;45.638;11.714;2022-11-18T04:59:00;20.30;91.30
71672;DHT22;62112;45.638;11.714;2022-11-18T05:01:27;20.20;91.30
71672;DHT22;62112;45.638;11.714;2022-11-18T05:03:54;20.30;91.30
71672;DHT22;62112;45.638;11.714;2022-11-18T05:06:20;20.20;91.10
71672;DHT22;62112;45.638;11.714;2022-11-18T05:08:46;20.30;91.40
71672;DHT22;62112;45.638;11.714;2022-11-18T05:11:12;20.20;91.40
71672;DHT22;62112;45.638;11.714;2022-11-18T05:13:56;20.20;91.40
71672;DHT22;62112;45.638;11.714;2022-11-18T05:16:22;20.20;91.40
71672;DHT22;62112;45.638;11.714;2022-11-18T05:18:48;20.20;91.30
71672;DHT22;62112;45.638;11.714;2022-11-18T05:21:13;20.20;91.30
71672;DHT22;62112;45.638;11.714;2022-11-18T05:23:39;20.30;91.30
71672;DHT22;62112;45.638;11.714;2022-11-18T05:26:09;20.10;91.50
71672;DHT22;62112;45.638;11.714;2022-11-18T05:28:35;20.20;91.40
71672;DHT22;62112;45.638;11.714;2022-11-18T05:31:15;20.30;91.50
71672;DHT22;62112;45.638;11.714;2022-11-18T05:33:41;20.20;91.50
71672;DHT22;62112;45.638;11.714;2022-11-18T05:36:13;20.20;91.40
71672;DHT22;62112;45.638;11.714;2022-11-18T05:38:39;20.20;91.40
71672;DHT22;62112;45.638;11.714;2022-11-18T05:41:06;20.20;91.40
71672;DHT22;62112;45.638;11.714;2022-11-18T05:43:32;20.30;91.40
71672;DHT22;62112;45.638;11.714;2022-11-18T05:45:59;20.20;91.30
71672;DHT22;62112;45.638;11.714;2022-11-18T05:48:24;20.20;91.40
71672;DHT22;62112;45.638;11.714;2022-11-18T05:50:52;20.20;91.40
71672;DHT22;62112;45.638;11.714;2022-11-18T05:53:21;20.20;91.20
71672;DHT22;62112;45.638;11.714;2022-11-18T05:55:56;20.20;91.30
71672;DHT22;62112;45.638;11.714;2022-11-18T05:58:23;20.20;91.30
71672;DHT22;62112;45.638;11.714;2022-11-18T06:00:50;20.20;91.30
71672;DHT22;62112;45.638;11.714;2022-11-18T06:03:23;20.20;91.20
71672;DHT22;62112;45.638;11.714;2022-11-18T06:05:53;20.20;91.40
71672;DHT22;62112;45.638;11.714;2022-11-18T06:08:20;20.20;91.40
71672;DHT22;62112;45.638;11.714;2022-11-18T06:10:48;20.20;91.30
71672;DHT22;62112;45.638;11.714;2022-11-18T06:13:34;20.20;91.30
71672;DHT22;62112;45.638;11.714;2022-11-18T06:16:23;20.20;91.40
71672;DHT22;62112;45.638;11.714;2022-11-18T06:18:51;20.20;91.20
71672;DHT22;62112;45.638;11.714;2022-11-18T06:21:18;20.20;91.20
71672;DHT22;62112;45.638;11.714;2022-11-18T06:23:44;20.20;91.40
71672;DHT22;62112;45.638;11.714;2022-11-18T06:26:13;20.20;91.30
71672;DHT22;62112;45.638;11.714;2022-11-18T06:28:41;20.20;91.40
71672;DHT22;62112;45.638;11.714;2022-11-18T06:31:11;20.20;91.10
71672;DHT22;62112;45.638;11.714;2022-11-18T06:33:38;20.10;91.40
71672;DHT22;62112;45.638;11.714;2022-11-18T06:36:05;20.20;91.20
71672;DHT22;62112;45.638;11.714;2022-11-18T06:38:33;20.20;91.30
71672;DHT22;62112;45.638;11.714;2022-11-18T06:41:00;20.20;91.30
71672;DHT22;62112;45.638;11.714;2022-11-18T06:43:27;20.20;91.30
71672;DHT22;62112;45.638;11.714;2022-11-18T06:46:13;20.20;91.10
71672;DHT22;62112;45.638;11.714;2022-11-18T06:48:58;20.20;91.30
71672;DHT22;62112;45.638;11.714;2022-11-18T06:51:25;20.20;91.30
71672;DHT22;62112;45.638;11.714;2022-11-18T06:53:51;20.20;91.10
71672;DHT22;62112;45.638;11.714;2022-11-18T06:56:18;20.30;91.30
71672;DHT22;62112;45.638;11.714;2022-11-18T06:58:45;20.20;91.50
71672;DHT22;62112;45.638;11.714;2022-11-18T07:01:16;20.20;91.20
71672;DHT22;62112;45.638;11.714;2022-11-18T07:03:44;20.20;91.10
71672;DHT22;62112;45.638;11.714;2022-11-18T07:06:13;20.20;91.50
71672;DHT22;62112;45.638;11.714;2022-11-18T07:08:40;20.20;91.30
71672;DHT22;62112;45.638;11.714;2022-11-18T07:11:09;20.10;91.20
71672;DHT22;62112;45.638;11.714;2022-11-18T07:13:35;20.20;91.20
71672;DHT22;62112;45.638;11.714;2022-11-18T07:16:06;20.20;91.40
71672;DHT22;62112;45.638;11.714;2022-11-18T07:18:34;20.20;91.20
71672;DHT22;62112;45.638;11.714;2022-11-18T07:21:10;20.20;91.20
71672;DHT22;62112;45.638;11.714;2022-11-18T07:23:36;20.20;91.20
71672;DHT22;62112;45.638;11.714;2022-11-18T07:26:02;20.20;91.10
71672;DHT22;62112;45.638;11.714;2022-11-18T07:28:29;20.20;91.30
71672;DHT22;62112;45.638;11.714;2022-11-18T07:31:03;20.20;91.20
71672;DHT22;62112;45.638;11.714;2022-11-18T07:33:29;20.20;91.20
71672;DHT22;62112;45.638;11.714;2022-11-18T07:35:59;20.20;91.20
71672;DHT22;62112;45.638;11.714;2022-11-18T07:38:25;20.20;91.20
71672;DHT22;62112;45.638;11.714;2022-11-18T07:40:51;20.20;91.20
71672;DHT22;62112;45.638;11.714;2022-11-18T07:43:17;20.30;91.10
71672;DHT22;62112;45.638;11.714;2022-11-18T07:45:45;20.30;91.30
71672;DHT22;62112;45.638;11.714;2022-11-18T07:48:15;20.30;91.20
71672;DHT22;62112;45.638;11.714;2022-11-18T07:50:41;20.20;91.20
71672;DHT22;62112;45.638;11.714;2022-11-18T07:53:11;20.30;91.10
71672;DHT22;62112;45.638;11.714;2022-11-18T07:55:41;20.30;91.10
71672;DHT22;62112;45.638;11.714;2022-11-18T07:58:09;20.40;91.10
71672;DHT22;62112;45.638;11.714;2022-11-18T08:00:35;20.40;91.00
71672;DHT22;62112;45.638;11.714;2022-11-18T08:03:01;20.30;91.00
71672;DHT22;62112;45.638;11.714;2022-11-18T08:05:32;20.50;91.00
71672;DHT22;62112;45.638;11.714;2022-11-18T08:08:06;20.50;90.90
71672;DHT22;62112;45.638;11.714;2022-11-18T08:10:35;20.50;91.00
71672;DHT22;62112;45.638;11.714;2022-11-18T08:13:01;20.60;91.00
71672;DHT22;62112;45.638;11.714;2022-11-18T08:15:27;20.70;90.90
71672;DHT22;62112;45.638;11.714;2022-11-18T08:17:53;20.90;89.40
71672;DHT22;62112;45.638;11.714;2022-11-18T08:20:19;21.00;89.50
71672;DHT22;62112;45.638;11.714;2022-11-18T08:22:45;21.10;89.30
71672;DHT22;62112;45.638;11.714;2022-11-18T08:25:11;21.00;89.30
71672;DHT22;62112;45.638;11.714;2022-11-18T08:27:37;21.00;89.30
71672;DHT22;62112;45.638;11.714;2022-11-18T08:30:03;21.00;89.30
71672;DHT22;62112;45.638;11.714;2022-11-18T08:32:29;20.90;89.30
71672;DHT22;62112;45.638;11.714;2022-11-18T08:34:55;20.90;89.20
71672;DHT22;62112;45.638;11.714;2022-11-18T08:37:21;20.80;90.50
71672;DHT22;62112;45.638;11.714;2022-11-18T08:39:46;20.90;90.60
71672;DHT22;62112;45.638;11.714;2022-11-18T08:42:16;20.80;90.60
71672;DHT22;62112;45.638;11.714;2022-11-18T08:44:48;20.70;90.50
71672;DHT22;62112;45.638;11.714;2022-11-18T08:47:17;20.70;90.70
71672;DHT22;62112;45.638;11.714;2022-11-18T08:49:46;20.70;90.60
71672;DHT22;62112;45.638;11.714;2022-11-18T08:52:15;20.70;90.70
71672;DHT22;62112;45.638;11.714;2022-11-18T08:54:41;20.70;90.60
71672;DHT22;62112;45.638;11.714;2022-11-18T08:57:08;20.70;90.60
71672;DHT22;62112;45.638;11.714;2022-11-18T08:59:37;20.70;90.70
71672;DHT22;62112;45.638;11.714;2022-11-18T09:02:11;20.70;90.80
71672;DHT22;62112;45.638;11.714;2022-11-18T09:04:39;20.60;90.90
71672;DHT22;62112;45.638;11.714;2022-11-18T09:07:05;20.60;90.70
71672;DHT22;62112;45.638;11.714;2022-11-18T09:09:31;20.60;90.80
71672;DHT22;62112;45.638;11.714;2022-11-18T09:11:58;20.70;90.80
71672;DHT22;62112;45.638;11.714;2022-11-18T09:14:24;20.70;90.80
71672;DHT22;62112;45.638;11.714;2022-11-18T09:16:50;20.80;90.80
71672;DHT22;62112;45.638;11.714;2022-11-18T09:19:16;20.70;90.70
71672;DHT22;62112;45.638;11.714;2022-11-18T09:21:43;20.70;90.80
71672;DHT22;62112;45.638;11.714;2022-11-18T09:24:08;20.70;90.70
71672;DHT22;62112;45.638;11.714;2022-11-18T09:26:36;20.70;90.70
71672;DHT22;62112;45.638;11.714;2022-11-18T09:29:02;20.70;90.60
71672;DHT22;62112;45.638;11.714;2022-11-18T09:31:28;20.60;90.60
71672;DHT22;62112;45.638;11.714;2022-11-18T09:33:54;20.70;90.60
71672;DHT22;62112;45.638;11.714;2022-11-18T09:36:23;20.70;90.50
71672;DHT22;62112;45.638;11.714;2022-11-18T09:38:50;20.70;90.50
71672;DHT22;62112;45.638;11.714;2022-11-18T09:44:11;20.70;90.50
71672;DHT22;62112;45.638;11.714;2022-11-18T09:49:28;21.00;88.80
71672;DHT22;62112;45.638;11.714;2022-11-18T09:51:55;21.20;88.70
71672;DHT22;62112;45.638;11.714;2022-11-18T09:54:25;21.10;88.70
71672;DHT22;62112;45.638;11.714;2022-11-18T09:56:54;21.20;88.70
71672;DHT22;62112;45.638;11.714;2022-11-18T09:59:23;21.30;89.00
71672;DHT22;62112;45.638;11.714;2022-11-18T10:01:51;21.40;88.60
71672;DHT22;62112;45.638;11.714;2022-11-18T10:04:20;21.50;88.40
71672;DHT22;62112;45.638;11.714;2022-11-18T10:06:47;21.40;88.20
71672;DHT22;62112;45.638;11.714;2022-11-18T10:09:33;21.50;88.40
71672;DHT22;62112;45.638;11.714;2022-11-18T10:12:26;21.50;88.20
71672;DHT22;62112;45.638;11.714;2022-11-18T10:26:06;21.90;87.80
71672;DHT22;62112;45.638;11.714;2022-11-18T10:28:32;21.90;87.50
71672;DHT22;62112;45.638;11.714;2022-11-18T10:31:10;21.80;87.50
71672;DHT22;62112;45.638;11.714;2022-11-18T10:33:37;21.90;87.30
71672;DHT22;62112;45.638;11.714;2022-11-18T10:38:41;21.90;87.30
71672;DHT22;62112;45.638;11.714;2022-11-18T10:41:13;22.00;87.40
71672;DHT22;62112;45.638;11.714;2022-11-18T10:43:54;22.00;87.20
71672;DHT22;62112;45.638;11.714;2022-11-18T10:49:18;22.10;87.20
71672;DHT22;62112;45.638;11.714;2022-11-18T10:52:08;22.10;86.80
71672;DHT22;62112;45.638;11.714;2022-11-18T10:54:36;22.20;87.00
71672;DHT22;62112;45.638;11.714;2022-11-18T10:57:26;22.20;87.00
71672;DHT22;62112;45.638;11.714;2022-11-18T10:59:54;22.20;86.90
71672;DHT22;62112;45.638;11.714;2022-11-18T11:02:29;22.30;87.00
71672;DHT22;62112;45.638;11.714;2022-11-18T11:04:57;22.30;86.80
71672;DHT22;62112;45.638;11.714;2022-11-18T11:07:32;22.20;87.00
71672;DHT22;62112;45.638;11.714;2022-11-18T11:12:32;22.30;86.80
71672;DHT22;62112;45.638;11.714;2022-11-18T11:15:10;22.30;86.80
71672;DHT22;62112;45.638;11.714;2022-11-18T11:20:42;22.30;86.60
71672;DHT22;62112;45.638;11.714;2022-11-18T11:23:13;22.50;86.80
71672;DHT22;62112;45.638;11.714;2022-11-18T11:26:23;22.40;86.70
71672;DHT22;62112;45.638;11.714;2022-11-18T11:28:43;22.40;86.70
71672;DHT22;62112;45.638;11.714;2022-11-18T11:31:30;22.50;86.50
71672;DHT22;62112;45.638;11.714;2022-11-18T11:37:12;22.50;86.80
71672;DHT22;62112;45.638;11.714;2022-11-18T11:45:38;22.50;86.40
71672;DHT22;62112;45.638;11.714;2022-11-18T11:48:19;22.50;86.50
71672;DHT22;62112;45.638;11.714;2022-11-18T11:50:55;22.50;86.50
71672;DHT22;62112;45.638;11.714;2022-11-18T11:53:43;22.50;86.50
71672;DHT22;62112;45.638;11.714;2022-11-18T11:59:27;22.40;86.50
71672;DHT22;62112;45.638;11.714;2022-11-18T12:04:51;22.40;86.60
71672;DHT22;62112;45.638;11.714;2022-11-18T12:07:20;22.40;86.60
71672;DHT22;62112;45.638;11.714;2022-11-18T12:10:34;22.40;86.70
71672;DHT22;62112;45.638;11.714;2022-11-18T12:20:58;22.30;86.70
71672;DHT22;62112;45.638;11.714;2022-11-18T12:23:29;22.30;86.70
71672;DHT22;62112;45.638;11.714;2022-11-18T12:26:08;22.40;86.70
71672;DHT22;62112;45.638;11.714;2022-11-18T12:28:35;22.30;86.90
71672;DHT22;62112;45.638;11.714;2022-11-18T12:34:00;22.30;86.70
71672;DHT22;62112;45.638;11.714;2022-11-18T12:36:44;22.30;86.60
71672;DHT22;62112;45.638;11.714;2022-11-18T12:41:58;22.30;86.70
71672;DHT22;62112;45.638;11.714;2022-11-18T12:44:45;22.20;86.70
71672;DHT22;62112;45.638;11.714;2022-11-18T12:47:13;22.30;86.80
71672;DHT22;62112;45.638;11.714;2022-11-18T12:54:59;22.20;86.80
71672;DHT22;62112;45.638;11.714;2022-11-18T12:57:34;22.20;86.80
71672;DHT22;62112;45.638;11.714;2022-11-18T13:02:57;22.20;86.80
71672;DHT22;62112;45.638;11.714;2022-11-18T13:05:27;22.20;86.80
71672;DHT22;62112;45.638;11.714;2022-11-18T13:07:56;22.20;86.90
71672;DHT22;62112;45.638;11.714;2022-11-18T13:13:27;22.10;87.00
71672;DHT22;62112;45.638;11.714;2022-11-18T13:15:54;22.10;86.80
71672;DHT22;62112;45.638;11.714;2022-11-18T13:18:49;22.10;87.10
71672;DHT22;62112;45.638;11.714;2022-11-18T13:21:27;22.10;87.10
71672;DHT22;62112;45.638;11.714;2022-11-18T13:24:16;22.00;87.00
71672;DHT22;62112;45.638;11.714;2022-11-18T13:26:44;22.00;87.10
71672;DHT22;62112;45.638;11.714;2022-11-18T13:34:46;22.00;87.10
71672;DHT22;62112;45.638;11.714;2022-11-18T13:37:29;22.00;87.00
71672;DHT22;62112;45.638;11.714;2022-11-18T13:39:55;22.00;87.10
71672;DHT22;62112;45.638;11.714;2022-11-18T13:42:26;22.00;87.20
71672;DHT22;62112;45.638;11.714;2022-11-18T13:45:00;21.90;87.20
71672;DHT22;62112;45.638;11.714;2022-11-18T13:50:00;21.90;87.20
71672;DHT22;62112;45.638;11.714;2022-11-18T13:52:43;21.90;87.20
71672;DHT22;62112;45.638;11.714;2022-11-18T13:55:34;21.90;87.20
71672;DHT22;62112;45.638;11.714;2022-11-18T13:58:02;21.90;87.20
71672;DHT22;62112;45.638;11.714;2022-11-18T14:00:29;21.90;87.20
71672;DHT22;62112;45.638;11.714;2022-11-18T14:05:54;21.90;87.20
71672;DHT22;62112;45.638;11.714;2022-11-18T14:08:29;21.80;87.50
71672;DHT22;62112;45.638;11.714;2022-11-18T14:10:55;21.90;87.40
71672;DHT22;62112;45.638;11.714;2022-11-18T14:13:29;21.80;87.50
71672;DHT22;62112;45.638;11.714;2022-11-18T14:15:57;21.80;87.40
71672;DHT22;62112;45.638;11.714;2022-11-18T14:18:35;21.80;87.40
71672;DHT22;62112;45.638;11.714;2022-11-18T14:21:03;21.80;87.50
71672;DHT22;62112;45.638;11.714;2022-11-18T14:23:34;21.80;87.50
71672;DHT22;62112;45.638;11.714;2022-11-18T14:26:03;21.80;87.50
71672;DHT22;62112;45.638;11.714;2022-11-18T14:28:30;21.70;87.60
71672;DHT22;62112;45.638;11.714;2022-11-18T14:36:29;21.70;87.60
71672;DHT22;62112;45.638;11.714;2022-11-18T14:38:55;21.60;87.70
71672;DHT22;62112;45.638;11.714;2022-11-18T14:41:21;21.60;87.70
71672;DHT22;62112;45.638;11.714;2022-11-18T14:44:06;21.60;87.60
71672;DHT22;62112;45.638;11.714;2022-11-18T14:46:33;21.70;87.60
71672;DHT22;62112;45.638;11.714;2022-11-18T14:49:02;21.60;87.70
71672;DHT22;62112;45.638;11.714;2022-11-18T14:51:28;21.60;87.60
71672;DHT22;62112;45.638;11.714;2022-11-18T14:53:54;21.50;87.70
71672;DHT22;62112;45.638;11.714;2022-11-18T14:58:50;21.50;87.80
71672;DHT22;62112;45.638;11.714;2022-11-18T15:01:16;21.50;87.90
71672;DHT22;62112;45.638;11.714;2022-11-18T15:03:42;21.50;87.90
71672;DHT22;62112;45.638;11.714;2022-11-18T15:06:15;21.50;88.00
71672;DHT22;62112;45.638;11.714;2022-11-18T15:08:45;21.60;88.00
71672;DHT22;62112;45.638;11.714;2022-11-18T15:11:12;21.60;87.90
71672;DHT22;62112;45.638;11.714;2022-11-18T15:13:39;21.60;88.10
71672;DHT22;62112;45.638;11.714;2022-11-18T15:16:25;21.60;88.00
71672;DHT22;62112;45.638;11.714;2022-11-18T15:18:54;21.70;88.00
71672;DHT22;62112;45.638;11.714;2022-11-18T15:21:21;21.60;88.00
71672;DHT22;62112;45.638;11.714;2022-11-18T15:23:47;21.60;88.10
71672;DHT22;62112;45.638;11.714;2022-11-18T15:26:24;21.60;88.00
71672;DHT22;62112;45.638;11.714;2022-11-18T15:28:55;21.70;87.90
71672;DHT22;62112;45.638;11.714;2022-11-18T15:31:22;21.60;87.90
71672;DHT22;62112;45.638;11.714;2022-11-18T15:33:48;21.60;88.00
71672;DHT22;62112;45.638;11.714;2022-11-18T15:36:20;21.80;87.90
71672;DHT22;62112;45.638;11.714;2022-11-18T15:38:47;21.70;88.00
71672;DHT22;62112;45.638;11.714;2022-11-18T15:41:21;21.70;87.90
71672;DHT22;62112;45.638;11.714;2022-11-18T15:43:48;21.70;87.80
71672;DHT22;62112;45.638;11.714;2022-11-18T15:46:15;21.80;87.90
71672;DHT22;62112;45.638;11.714;2022-11-18T15:48:41;21.80;87.70
71672;DHT22;62112;45.638;11.714;2022-11-18T15:51:07;21.80;87.70
71672;DHT22;62112;45.638;11.714;2022-11-18T15:53:33;21.80;87.60
71672;DHT22;62112;45.638;11.714;2022-11-18T15:59:00;21.80;87.50
71672;DHT22;62112;45.638;11.714;2022-11-18T16:01:29;21.90;87.40
71672;DHT22;62112;45.638;11.714;2022-11-18T16:03:55;21.90;87.50
71672;DHT22;62112;45.638;11.714;2022-11-18T16:06:22;21.80;87.60
71672;DHT22;62112;45.638;11.714;2022-11-18T16:08:48;21.90;87.50
71672;DHT22;62112;45.638;11.714;2022-11-18T16:11:15;21.90;87.70
71672;DHT22;62112;45.638;11.714;2022-11-18T16:14:04;21.90;87.70
71672;DHT22;62112;45.638;11.714;2022-11-18T16:16:31;21.90;87.50
71672;DHT22;62112;45.638;11.714;2022-11-18T16:18:58;21.90;87.50
71672;DHT22;62112;45.638;11.714;2022-11-18T16:21:25;21.90;87.50
71672;DHT22;62112;45.638;11.714;2022-11-18T16:23:58;21.90;87.60
71672;DHT22;62112;45.638;11.714;2022-11-18T16:26:25;21.90;87.20
71672;DHT22;62112;45.638;11.714;2022-11-18T16:28:52;21.80;87.30
71672;DHT22;62112;45.638;11.714;2022-11-18T16:31:18;21.80;87.40
71672;DHT22;62112;45.638;11.714;2022-11-18T16:34:07;21.90;87.40
71672;DHT22;62112;45.638;11.714;2022-11-18T16:36:33;21.90;87.40
71672;DHT22;62112;45.638;11.714;2022-11-18T16:39:07;21.80;87.40
71672;DHT22;62112;45.638;11.714;2022-11-18T16:41:34;21.80;87.30
71672;DHT22;62112;45.638;11.714;2022-11-18T16:44:02;21.80;87.60
71672;DHT22;62112;45.638;11.714;2022-11-18T16:46:29;21.80;87.50
71672;DHT22;62112;45.638;11.714;2022-11-18T16:48:55;21.70;87.60
71672;DHT22;62112;45.638;11.714;2022-11-18T16:51:29;21.70;87.60
71672;DHT22;62112;45.638;11.714;2022-11-18T16:54:01;21.70;87.70
71672;DHT22;62112;45.638;11.714;2022-11-18T16:56:29;21.80;87.70
71672;DHT22;62112;45.638;11.714;2022-11-18T16:59:04;21.70;87.70
71672;DHT22;62112;45.638;11.714;2022-11-18T17:01:30;21.70;87.70
71672;DHT22;62112;45.638;11.714;2022-11-18T17:03:57;21.70;87.80
71672;DHT22;62112;45.638;11.714;2022-11-18T17:06:25;21.70;88.00
71672;DHT22;62112;45.638;11.714;2022-11-18T17:08:51;21.70;87.90
71672;DHT22;62112;45.638;11.714;2022-11-18T17:11:18;21.60;87.90
71672;DHT22;62112;45.638;11.714;2022-11-18T17:13:44;21.70;87.80
71672;DHT22;62112;45.638;11.714;2022-11-18T17:16:13;21.70;88.00
71672;DHT22;62112;45.638;11.714;2022-11-18T17:18:39;21.70;87.80
71672;DHT22;62112;45.638;11.714;2022-11-18T17:21:07;21.60;87.90
71672;DHT22;62112;45.638;11.714;2022-11-18T17:23:34;21.60;88.00
71672;DHT22;62112;45.638;11.714;2022-11-18T17:26:00;21.60;88.00
71672;DHT22;62112;45.638;11.714;2022-11-18T17:28:30;21.60;88.00
71672;DHT22;62112;45.638;11.714;2022-11-18T17:30:56;21.60;87.90
71672;DHT22;62112;45.638;11.714;2022-11-18T17:33:23;21.50;88.00
71672;DHT22;62112;45.638;11.714;2022-11-18T17:36:04;21.50;88.10